createdAt,value
2023-02-04T00:00:37.362Z,10.83
2023-02-04T00:03:07.621Z,10.63
2023-02-04T00:05:35.854Z,10.63
2023-02-04T00:08:07.004Z,10.70
2023-02-04T00:10:35.171Z,9.57
2023-02-04T00:13:03.405Z,8.73
2023-02-04T00:15:31.700Z,10.47
2023-02-04T00:17:59.851Z,11.60
2023-02-04T00:20:29.777Z,6.73
2023-02-04T00:22:58.106Z,11.20
2023-02-04T00:25:26.270Z,7.27
2023-02-04T00:27:54.543Z,8.27
2023-02-04T00:30:22.949Z,9.77
2023-02-04T00:32:54.549Z,10.97
2023-02-04T00:35:22.928Z,15.60
2023-02-04T00:37:52.765Z,7.63
2023-02-04T00:40:21.066Z,7.53
2023-02-04T00:42:49.229Z,8.33
2023-02-04T00:45:17.413Z,8.80
2023-02-04T00:47:45.558Z,9.47
2023-02-04T00:50:13.706Z,6.57
2023-02-04T00:52:41.854Z,10.10
2023-02-04T00:55:12.182Z,9.07
2023-02-04T00:57:40.350Z,9.77
2023-02-04T01:00:08.989Z,8.10
2023-02-04T01:02:37.139Z,8.80
2023-02-04T01:05:05.400Z,8.57
2023-02-04T01:07:33.672Z,9.53
2023-02-04T01:10:01.923Z,11.03
2023-02-04T01:12:31.443Z,10.43
2023-02-04T01:14:59.998Z,8.30
2023-02-04T01:17:28.241Z,5.60
2023-02-04T01:19:56.415Z,8.80
2023-02-04T01:22:24.552Z,8.10
2023-02-04T01:24:52.736Z,7.87
2023-02-04T01:27:20.886Z,8.33
2023-02-04T01:29:50.357Z,10.30
2023-02-04T01:32:18.502Z,11.23
2023-02-04T01:34:46.672Z,11.97
2023-02-04T01:37:14.853Z,9.97
2023-02-04T01:39:43.017Z,13.03
2023-02-04T01:42:11.232Z,12.40
2023-02-04T01:44:40.191Z,11.23
2023-02-04T01:47:09.757Z,8.97
2023-02-04T01:49:37.937Z,11.93
2023-02-04T01:52:06.428Z,9.03
2023-02-04T01:54:34.577Z,12.20
2023-02-04T01:57:02.902Z,10.23
2023-02-04T01:59:31.081Z,10.73
2023-02-04T02:01:59.269Z,12.50
2023-02-04T02:04:31.316Z,16.40
2023-02-04T02:07:00.731Z,10.37
2023-02-04T02:09:29.327Z,13.60
2023-02-04T02:11:57.606Z,9.93
2023-02-04T02:14:25.947Z,12.93
2023-02-04T02:16:54.167Z,10.20
2023-02-04T02:19:25.679Z,15.73
2023-02-04T02:21:58.853Z,7.13
2023-02-04T02:24:29.711Z,15.07
2023-02-04T02:26:58.931Z,11.83
2023-02-04T02:29:27.636Z,7.67
2023-02-04T02:31:57.295Z,13.47
2023-02-04T02:34:26.041Z,14.53
2023-02-04T02:36:54.192Z,7.87
2023-02-04T02:39:22.733Z,12.73
2023-02-04T02:41:52.262Z,15.83
2023-02-04T02:44:20.826Z,10.13
2023-02-04T02:46:48.973Z,7.70
2023-02-04T02:49:17.843Z,7.03
2023-02-04T02:51:46.276Z,7.00
2023-02-04T02:54:20.277Z,18.33
2023-02-04T02:56:48.633Z,8.03
2023-02-04T02:59:19.189Z,10.63
2023-02-04T03:01:47.952Z,12.03
2023-02-04T03:04:16.636Z,9.43
2023-02-04T03:06:44.816Z,15.27
2023-02-04T03:09:13.066Z,11.07
2023-02-04T03:11:41.236Z,10.83
2023-02-04T03:14:09.436Z,11.13
2023-02-04T03:16:40.404Z,10.77
2023-02-04T03:19:09.355Z,13.60
2023-02-04T03:21:37.908Z,8.43
2023-02-04T03:24:06.429Z,9.70
2023-02-04T03:26:34.820Z,7.97
2023-02-04T03:29:03.025Z,8.00
2023-02-04T03:31:31.303Z,9.77
2023-02-04T03:34:00.827Z,9.33
2023-02-04T03:36:28.954Z,10.40
2023-02-04T03:38:57.186Z,7.00
2023-02-04T03:41:25.342Z,12.10
2023-02-04T03:43:53.617Z,6.90
2023-02-04T03:46:23.668Z,13.37
2023-02-04T03:48:51.893Z,6.10
2023-02-04T03:51:21.387Z,12.30
2023-02-04T03:53:49.504Z,11.13
2023-02-04T03:56:17.689Z,7.50
2023-02-04T03:58:45.888Z,8.67
2023-02-04T04:01:14.123Z,8.10
2023-02-04T04:03:42.259Z,13.57
2023-02-04T04:06:11.143Z,10.00
2023-02-04T04:08:40.789Z,10.10
2023-02-04T04:11:08.956Z,13.60
2023-02-04T04:13:37.108Z,14.27
2023-02-04T04:16:05.393Z,14.03
2023-02-04T04:18:33.697Z,9.70
2023-02-04T04:21:01.873Z,9.20
2023-02-04T04:23:30.021Z,11.13
2023-02-04T04:25:59.520Z,8.47
2023-02-04T04:28:27.687Z,5.03
2023-02-04T04:30:55.886Z,8.83
2023-02-04T04:33:24.083Z,7.27
2023-02-04T04:35:52.206Z,10.27
2023-02-04T04:38:20.369Z,11.17
2023-02-04T04:40:48.492Z,9.93
2023-02-04T04:43:18.044Z,10.80
2023-02-04T04:45:46.237Z,9.80
2023-02-04T04:48:14.498Z,10.37
2023-02-04T04:50:42.629Z,11.90
2023-02-04T04:53:11.354Z,10.17
2023-02-04T04:55:39.626Z,7.60
2023-02-04T04:58:08.314Z,15.20
2023-02-04T05:00:37.878Z,17.50
2023-02-04T05:03:06.140Z,8.97
2023-02-04T05:05:39.771Z,13.47
2023-02-04T05:08:10.780Z,12.33
2023-02-04T05:10:38.938Z,15.57
2023-02-04T05:13:07.289Z,9.57
2023-02-04T05:15:35.418Z,7.17
2023-02-04T05:18:04.966Z,9.23
2023-02-04T05:20:33.407Z,11.47
2023-02-04T05:23:03.966Z,12.20
2023-02-04T05:25:33.377Z,14.77
2023-02-04T05:28:01.669Z,14.47
2023-02-04T05:30:30.138Z,13.43
2023-02-04T05:32:58.545Z,17.23
2023-02-04T05:35:28.027Z,13.97
2023-02-04T05:37:56.167Z,11.60
2023-02-04T05:40:24.350Z,17.43
2023-02-04T05:42:52.581Z,11.27
2023-02-04T05:45:20.822Z,18.97
2023-02-04T05:47:48.994Z,11.27
2023-02-04T05:50:17.460Z,13.60
2023-02-04T05:52:47.113Z,14.23
2023-02-04T05:55:15.335Z,14.63
2023-02-04T05:57:43.506Z,12.83
2023-02-04T06:00:13.680Z,14.43
2023-02-04T06:02:41.846Z,10.00
2023-02-04T06:05:10.271Z,15.20
2023-02-04T06:07:38.418Z,14.13
2023-02-04T06:10:08.093Z,18.90
2023-02-04T06:12:36.253Z,16.20
2023-02-04T06:15:04.410Z,13.67
2023-02-04T06:17:32.661Z,15.50
2023-02-04T06:20:00.819Z,11.63
2023-02-04T06:22:29.053Z,20.30
2023-02-04T06:24:57.177Z,13.63
2023-02-04T06:27:26.747Z,17.30
2023-02-04T06:29:55.482Z,13.97
2023-02-04T06:32:23.915Z,15.97
2023-02-04T06:34:52.125Z,9.23
2023-02-04T06:37:20.320Z,14.40
2023-02-04T06:39:48.483Z,23.33
2023-02-04T06:42:16.615Z,16.13
2023-02-04T06:44:46.097Z,17.40
2023-02-04T06:47:14.256Z,18.00
2023-02-04T06:49:42.391Z,16.03
2023-02-04T06:52:10.936Z,13.67
2023-02-04T06:54:39.229Z,24.63
2023-02-04T06:57:07.471Z,19.03
2023-02-04T06:59:35.709Z,18.43
2023-02-04T07:02:05.987Z,18.60
2023-02-04T07:04:34.147Z,15.60
2023-02-04T07:07:02.357Z,28.07
2023-02-04T07:09:30.612Z,18.50
2023-02-04T07:11:58.814Z,28.07
2023-02-04T07:14:26.944Z,22.63
2023-02-04T07:16:55.086Z,20.87
2023-02-04T07:19:24.593Z,28.13
2023-02-04T07:21:54.343Z,28.20
2023-02-04T07:24:22.487Z,40.03
2023-02-04T07:26:50.622Z,30.23
2023-02-04T07:29:25.182Z,30.33
2023-02-04T07:31:54.086Z,33.30
2023-02-04T07:34:22.592Z,27.03
2023-02-04T07:36:52.198Z,27.27
2023-02-04T07:39:20.374Z,29.87
2023-02-04T07:41:48.527Z,32.50
2023-02-04T07:44:16.676Z,29.53
2023-02-04T07:46:44.834Z,33.07
2023-02-04T07:49:13.027Z,32.60
2023-02-04T07:51:41.167Z,31.73
2023-02-04T07:54:10.698Z,33.50
2023-02-04T07:56:38.867Z,30.70
2023-02-04T07:59:07.019Z,23.83
2023-02-04T08:01:35.245Z,30.63
2023-02-04T08:04:03.553Z,32.17
2023-02-04T08:06:31.678Z,39.80
2023-02-04T08:08:59.832Z,30.10
2023-02-04T08:11:29.323Z,34.23
2023-02-04T08:13:57.460Z,41.10
2023-02-04T08:16:25.662Z,35.90
2023-02-04T08:18:53.825Z,35.93
2023-02-04T08:21:21.964Z,29.00
2023-02-04T08:23:50.217Z,33.63
2023-02-04T08:26:18.379Z,32.03
2023-02-04T08:28:47.866Z,38.60
2023-02-04T08:31:16.076Z,33.97
2023-02-04T08:33:44.263Z,30.23
2023-02-04T08:36:12.411Z,41.73
2023-02-04T08:38:41.362Z,39.73
2023-02-04T08:41:09.548Z,32.83
2023-02-04T08:43:37.784Z,38.13
2023-02-04T08:46:07.499Z,31.60
2023-02-04T08:48:35.669Z,38.73
2023-02-04T08:51:03.839Z,34.43
2023-02-04T08:53:31.996Z,36.37
2023-02-04T08:56:00.191Z,32.77
2023-02-04T08:58:28.347Z,38.57
2023-02-04T09:00:56.485Z,32.70
2023-02-04T09:03:25.987Z,31.57
2023-02-04T09:05:54.106Z,32.40
2023-02-04T09:08:22.301Z,32.03
2023-02-04T09:10:50.429Z,37.83
2023-02-04T09:13:18.608Z,30.20
2023-02-04T09:15:46.764Z,26.00
2023-02-04T09:18:16.989Z,32.60
2023-02-04T09:20:46.707Z,37.53
2023-02-04T09:23:14.933Z,34.67
2023-02-04T09:25:43.507Z,31.53
2023-02-04T09:28:12.569Z,25.53
2023-02-04T09:30:40.904Z,34.40
2023-02-04T09:33:09.489Z,28.33
2023-02-04T09:35:37.671Z,26.60
2023-02-04T09:38:07.587Z,29.03
2023-02-04T09:40:37.104Z,29.87
2023-02-04T09:43:05.883Z,26.53
2023-02-04T09:45:35.103Z,28.87
2023-02-04T09:48:04.769Z,26.20
2023-02-04T09:50:33.955Z,28.37
2023-02-04T09:53:03.299Z,30.97
2023-02-04T09:55:34.516Z,29.80
2023-02-04T09:58:03.050Z,30.67
2023-02-04T10:00:32.848Z,23.90
2023-02-04T10:03:03.078Z,26.10
2023-02-04T10:05:32.350Z,31.60
2023-02-04T10:08:00.661Z,20.47
2023-02-04T10:10:30.831Z,24.10
2023-02-04T10:13:01.501Z,26.60
2023-02-04T10:15:30.030Z,23.70
2023-02-04T10:18:03.393Z,24.60
2023-02-04T10:20:31.984Z,26.03
2023-02-04T10:23:00.344Z,28.30
2023-02-04T10:25:28.610Z,24.80
2023-02-04T10:27:57.628Z,27.17
2023-02-04T10:30:28.585Z,38.67
2023-02-04T10:32:56.755Z,26.17
2023-02-04T10:35:24.894Z,24.60
2023-02-04T10:38:04.964Z,21.13
2023-02-04T10:40:34.432Z,46.33
2023-02-04T10:43:10.153Z,24.40
2023-02-04T10:45:39.921Z,25.97
2023-02-04T10:48:08.911Z,21.40
2023-02-04T10:50:37.050Z,23.10
2023-02-04T10:53:21.943Z,22.57
2023-02-04T10:55:51.275Z,18.00
2023-02-04T10:58:21.276Z,22.47
2023-02-04T11:00:50.781Z,18.87
2023-02-04T11:03:23.857Z,28.23
2023-02-04T11:05:52.349Z,20.73
2023-02-04T11:08:23.469Z,35.20
2023-02-04T11:10:52.832Z,18.13
2023-02-04T11:13:25.198Z,22.70
2023-02-04T11:16:09.385Z,23.80
2023-02-04T11:18:46.287Z,19.43
2023-02-04T11:21:23.491Z,72.93
2023-02-04T11:23:52.121Z,19.40
2023-02-04T11:26:22.681Z,18.67
2023-02-04T11:28:52.413Z,28.43
2023-02-04T11:31:41.228Z,21.60
2023-02-04T11:34:11.294Z,18.57
2023-02-04T11:36:51.883Z,26.27
2023-02-04T11:39:20.123Z,17.37
2023-02-04T11:41:48.852Z,20.13
2023-02-04T11:44:17.899Z,18.97
2023-02-04T11:46:50.814Z,18.00
2023-02-04T11:49:20.745Z,20.93
2023-02-04T11:51:48.992Z,15.30
2023-02-04T11:54:19.203Z,24.63
2023-02-04T11:56:47.721Z,27.40
2023-02-04T11:59:17.576Z,21.47
2023-02-04T12:01:45.736Z,34.37
2023-02-04T12:04:24.574Z,20.67
2023-02-04T12:07:00.130Z,20.20
2023-02-04T12:09:29.832Z,34.33
2023-02-04T12:11:58.815Z,32.20
2023-02-04T12:14:30.485Z,18.13
2023-02-04T12:16:58.627Z,73.00
2023-02-04T12:19:28.324Z,18.70
2023-02-04T12:21:56.695Z,15.40
2023-02-04T12:24:24.889Z,15.77
2023-02-04T12:26:53.076Z,19.13
2023-02-04T12:29:21.205Z,18.50
2023-02-04T12:31:49.497Z,17.00
2023-02-04T12:34:17.709Z,17.73
2023-02-04T12:36:47.204Z,17.40
2023-02-04T12:39:15.333Z,16.43
2023-02-04T12:41:43.519Z,20.93
2023-02-04T12:44:11.696Z,18.13
2023-02-04T12:46:39.976Z,20.10
2023-02-04T12:49:09.657Z,21.00
2023-02-04T12:51:37.905Z,18.10
2023-02-04T12:54:07.544Z,30.37
2023-02-04T12:56:35.689Z,18.00
2023-02-04T12:59:03.865Z,19.57
2023-02-04T13:01:32.752Z,16.53
2023-02-04T13:04:00.955Z,17.27
2023-02-04T13:06:29.107Z,18.37
2023-02-04T13:08:57.247Z,18.40
2023-02-04T13:11:26.811Z,18.50
2023-02-04T13:13:54.957Z,19.60
2023-02-04T13:16:24.700Z,16.57
2023-02-04T13:18:52.950Z,23.53
2023-02-04T13:21:21.127Z,16.20
2023-02-04T13:23:49.267Z,17.50
2023-02-04T13:26:17.464Z,19.80
2023-02-04T13:28:46.960Z,18.47
2023-02-04T13:31:15.122Z,16.23
2023-02-04T13:33:43.361Z,16.27
2023-02-04T13:36:11.565Z,15.00
2023-02-04T13:38:39.715Z,22.37
2023-02-04T13:41:07.858Z,20.43
2023-02-04T13:43:36.572Z,20.20
2023-02-04T13:46:06.367Z,18.33
2023-02-04T13:48:36.562Z,16.63
2023-02-04T13:51:06.387Z,19.27
2023-02-04T13:53:34.550Z,20.73
2023-02-04T13:56:02.756Z,27.57
2023-02-04T13:58:30.883Z,17.97
2023-02-04T14:00:59.158Z,25.30
2023-02-04T14:03:29.850Z,18.67
2023-02-04T14:05:58.030Z,14.60
2023-02-04T14:08:26.699Z,19.23
2023-02-04T14:10:54.912Z,20.83
2023-02-04T14:13:23.108Z,16.37
2023-02-04T14:15:51.266Z,10.57
2023-02-04T14:18:19.435Z,15.40
2023-02-04T14:20:48.929Z,14.53
2023-02-04T14:23:17.062Z,17.43
2023-02-04T14:25:45.227Z,15.80
2023-02-04T14:28:13.445Z,14.07
2023-02-04T14:30:41.703Z,14.93
2023-02-04T14:33:09.861Z,14.17
2023-02-04T14:35:38.008Z,17.97
2023-02-04T14:38:07.484Z,13.70
2023-02-04T14:40:35.647Z,16.33
2023-02-04T14:43:03.812Z,22.73
2023-02-04T14:45:32.007Z,14.47
2023-02-04T14:48:01.316Z,14.90
2023-02-04T14:50:30.600Z,15.80
2023-02-04T14:52:59.393Z,15.83
2023-02-04T14:55:28.982Z,16.80
2023-02-04T14:57:57.143Z,16.03
2023-02-04T15:00:25.406Z,19.77
2023-02-04T15:02:53.569Z,19.63
2023-02-04T15:05:21.709Z,18.90
2023-02-04T15:07:49.868Z,19.00
2023-02-04T15:10:18.134Z,22.33
2023-02-04T15:12:47.854Z,18.57
2023-02-04T15:15:16.053Z,22.50
2023-02-04T15:17:44.211Z,20.23
2023-02-04T15:20:13.201Z,17.17
2023-02-04T15:22:41.342Z,19.33
2023-02-04T15:25:09.645Z,16.00
2023-02-04T15:27:37.825Z,21.93
2023-02-04T15:30:07.610Z,20.00
2023-02-04T15:32:35.736Z,24.00
2023-02-04T15:35:03.939Z,16.27
2023-02-04T15:37:32.278Z,21.30
2023-02-04T15:40:00.706Z,14.70
2023-02-04T15:42:29.345Z,23.07
2023-02-04T15:44:57.498Z,17.87
2023-02-04T15:47:27.001Z,17.67
2023-02-04T15:49:55.173Z,23.10
2023-02-04T15:52:25.329Z,23.70
2023-02-04T15:54:54.124Z,23.57
2023-02-04T15:57:22.318Z,19.77
2023-02-04T15:59:50.572Z,19.70
2023-02-04T16:02:18.776Z,23.23
2023-02-04T16:04:48.288Z,25.23
2023-02-04T16:07:16.455Z,26.13
2023-02-04T16:09:44.727Z,26.13
2023-02-04T16:12:12.871Z,23.23
2023-02-04T16:14:40.994Z,26.87
2023-02-04T16:17:09.627Z,26.93
2023-02-04T16:19:37.791Z,22.33
2023-02-04T16:22:07.334Z,27.93
2023-02-04T16:24:35.492Z,19.10
2023-02-04T16:27:03.632Z,23.17
2023-02-04T16:29:31.874Z,22.70
2023-02-04T16:32:00.045Z,29.10
2023-02-04T16:34:29.173Z,22.37
2023-02-04T16:36:57.353Z,23.33
2023-02-04T16:39:26.856Z,23.83
2023-02-04T16:41:55.021Z,21.03
2023-02-04T16:44:23.150Z,20.93
2023-02-04T16:46:51.353Z,22.00
2023-02-04T16:49:19.525Z,23.20
2023-02-04T16:51:47.649Z,27.57
2023-02-04T16:54:15.814Z,28.57
2023-02-04T16:56:45.345Z,24.20
2023-02-04T16:59:13.550Z,19.47
2023-02-04T17:01:41.811Z,25.13
2023-02-04T17:04:09.992Z,19.93
2023-02-04T17:06:38.157Z,23.27
2023-02-04T17:09:06.296Z,26.17
2023-02-04T17:11:34.505Z,20.63
2023-02-04T17:14:04.821Z,22.87
2023-02-04T17:16:33.520Z,24.27
2023-02-04T17:19:01.864Z,23.93
2023-02-04T17:21:30.617Z,17.23
2023-02-04T17:24:03.937Z,28.17
2023-02-04T17:26:37.029Z,20.40
2023-02-04T17:29:07.386Z,21.27
2023-02-04T17:31:35.697Z,26.63
2023-02-04T17:34:04.099Z,27.57
2023-02-04T17:36:32.586Z,25.63
2023-02-04T17:39:00.746Z,28.13
2023-02-04T17:41:29.887Z,24.90
2023-02-04T17:43:59.978Z,27.80
2023-02-04T17:46:29.498Z,25.17
2023-02-04T17:48:58.626Z,23.23
2023-02-04T17:51:26.868Z,22.43
2023-02-04T17:53:55.021Z,19.87
2023-02-04T17:56:23.212Z,19.60
2023-02-04T17:58:51.430Z,22.70
2023-02-04T18:01:21.828Z,18.83
2023-02-04T18:03:51.764Z,14.93
2023-02-04T18:06:22.045Z,15.20
2023-02-04T18:08:50.805Z,25.23
2023-02-04T18:11:20.477Z,27.73
2023-02-04T18:13:49.564Z,27.23
2023-02-04T18:16:23.208Z,26.47
2023-02-04T18:18:54.401Z,18.17
2023-02-04T18:21:23.657Z,18.73
2023-02-04T18:23:59.714Z,14.73
2023-02-04T18:26:29.074Z,9.87
2023-02-04T18:28:57.201Z,13.60
2023-02-04T18:31:30.183Z,12.87
2023-02-04T18:33:59.877Z,13.60
2023-02-04T18:36:28.327Z,15.30
2023-02-04T18:38:56.783Z,16.97
2023-02-04T18:41:31.300Z,14.23
2023-02-04T18:44:02.702Z,10.73
2023-02-04T18:46:33.257Z,11.57
2023-02-04T18:49:04.285Z,9.87
2023-02-04T18:51:36.433Z,13.37
2023-02-04T18:54:35.342Z,12.80
2023-02-04T18:57:32.562Z,10.07
2023-02-04T19:00:34.445Z,14.17
2023-02-04T19:03:09.121Z,11.87
2023-02-04T19:05:42.186Z,6.93
2023-02-04T19:08:20.768Z,12.87
2023-02-04T19:10:49.395Z,7.13
2023-02-04T19:13:19.927Z,9.67
2023-02-04T19:15:54.697Z,8.63
2023-02-04T19:18:25.098Z,10.53
2023-02-04T19:20:54.928Z,9.53
2023-02-04T19:23:24.160Z,11.63
2023-02-04T19:25:52.964Z,8.60
2023-02-04T19:28:27.357Z,12.90
2023-02-04T19:30:58.916Z,10.17
2023-02-04T19:33:27.976Z,11.97
2023-02-04T19:35:57.509Z,16.30
2023-02-04T19:38:45.288Z,11.33
2023-02-04T19:41:27.941Z,10.27
2023-02-04T19:44:09.965Z,17.73
2023-02-04T19:46:38.629Z,15.80
2023-02-04T19:49:14.643Z,20.23
2023-02-04T19:51:46.602Z,16.50
2023-02-04T19:54:19.766Z,17.87
2023-02-04T19:56:47.983Z,22.90
2023-02-04T19:59:20.638Z,17.97
2023-02-04T20:01:48.805Z,19.10
2023-02-04T20:04:20.608Z,13.03
2023-02-04T20:06:50.189Z,19.03
2023-02-04T20:09:19.614Z,13.97
2023-02-04T20:11:53.320Z,15.27
2023-02-04T20:14:38.894Z,14.57
2023-02-04T20:17:12.819Z,15.23
2023-02-04T20:19:42.411Z,12.57
2023-02-04T20:22:29.770Z,15.67
2023-02-04T20:24:58.702Z,16.77
2023-02-04T20:27:28.001Z,19.87
2023-02-04T20:30:00.477Z,23.33
2023-02-04T20:32:30.186Z,20.70
2023-02-04T20:35:00.504Z,21.77
2023-02-04T20:37:30.178Z,21.93
2023-02-04T20:39:59.875Z,26.43
2023-02-04T20:42:34.001Z,23.40
2023-02-04T20:45:17.048Z,28.87
2023-02-04T20:47:45.193Z,32.83
2023-02-04T20:50:36.044Z,30.67
2023-02-04T20:53:07.421Z,31.37
2023-02-04T20:55:36.158Z,28.47
2023-02-04T20:58:16.796Z,28.07
2023-02-04T21:00:46.064Z,32.50
2023-02-04T21:03:21.356Z,32.53
2023-02-04T21:05:50.393Z,34.67
2023-02-04T21:08:27.573Z,34.57
2023-02-04T21:10:55.805Z,32.67
2023-02-04T21:13:23.988Z,28.77
2023-02-04T21:15:52.383Z,37.17
2023-02-04T21:18:20.559Z,36.10
2023-02-04T21:20:48.720Z,34.30
2023-02-04T21:23:17.790Z,35.10
2023-02-04T21:25:47.339Z,36.97
2023-02-04T21:28:15.691Z,32.80
2023-02-04T21:30:43.953Z,32.90
2023-02-04T21:33:12.221Z,38.53
2023-02-04T21:35:40.701Z,43.03
2023-02-04T21:38:08.874Z,36.03
2023-02-04T21:40:38.226Z,36.77
2023-02-04T21:43:08.576Z,33.57
2023-02-04T21:45:37.804Z,32.77
2023-02-04T21:48:07.744Z,32.03
2023-02-04T21:50:36.266Z,40.40
2023-02-04T21:53:04.427Z,33.33
2023-02-04T21:55:32.917Z,32.13
2023-02-04T21:58:01.396Z,35.60
2023-02-04T22:00:30.937Z,36.60
2023-02-04T22:02:59.193Z,29.93
2023-02-04T22:05:27.544Z,36.23
2023-02-04T22:07:55.722Z,41.00
2023-02-04T22:10:25.155Z,38.57
2023-02-04T22:12:53.304Z,42.77
2023-02-04T22:15:25.112Z,34.07
2023-02-04T22:17:54.835Z,41.70
2023-02-04T22:20:23.899Z,39.07
2023-02-04T22:22:52.054Z,37.73
2023-02-04T22:25:21.174Z,40.03
2023-02-04T22:27:49.509Z,33.87
2023-02-04T22:30:18.272Z,39.33
2023-02-04T22:32:46.447Z,33.87
2023-02-04T22:35:15.996Z,35.50
2023-02-04T22:37:44.362Z,38.33
2023-02-04T22:40:13.300Z,37.27
2023-02-04T22:42:41.480Z,35.63
2023-02-04T22:45:11.161Z,38.20
2023-02-04T22:47:39.324Z,34.53
2023-02-04T22:50:07.804Z,34.90
2023-02-04T22:52:37.324Z,33.13
2023-02-04T22:55:05.654Z,32.50
2023-02-04T22:57:33.783Z,35.70
2023-02-04T23:00:01.944Z,34.93
2023-02-04T23:02:30.106Z,30.23
2023-02-04T23:04:58.292Z,30.97
2023-02-04T23:07:26.450Z,28.30
2023-02-04T23:09:55.997Z,30.03
2023-02-04T23:12:24.221Z,28.63
2023-02-04T23:14:52.412Z,31.03
2023-02-04T23:17:20.564Z,28.13
2023-02-04T23:19:48.735Z,30.47
2023-02-04T23:22:17.233Z,27.60
2023-02-04T23:24:45.495Z,33.10
2023-02-04T23:27:16.276Z,26.03
2023-02-04T23:29:44.414Z,29.70
2023-02-04T23:32:12.614Z,25.13
2023-02-04T23:34:40.768Z,26.60
2023-02-04T23:37:08.936Z,25.70
2023-02-04T23:39:37.074Z,28.23
2023-02-04T23:42:05.313Z,22.70
2023-02-04T23:44:34.812Z,23.20
2023-02-04T23:47:02.979Z,24.60
2023-02-04T23:49:31.125Z,28.67
2023-02-04T23:51:59.270Z,27.37
2023-02-04T23:54:27.461Z,25.30
2023-02-04T23:56:55.657Z,30.17
2023-02-04T23:59:23.794Z,29.20
